createdAt,value
2018-12-02T00:00:49.151Z,17.60
2018-12-02T00:03:16.622Z,15.77
2018-12-02T00:05:43.752Z,16.70
2018-12-02T00:08:10.815Z,16.70
2018-12-02T00:10:38.283Z,17.40
2018-12-02T00:13:05.350Z,17.20
2018-12-02T00:15:32.805Z,16.93
2018-12-02T00:18:00.910Z,16.17
2018-12-02T00:20:28.041Z,16.90
2018-12-02T00:22:55.218Z,17.30
2018-12-02T00:25:22.295Z,17.83
2018-12-02T00:27:50.758Z,18.43
2018-12-02T00:30:22.367Z,17.33
2018-12-02T00:32:49.487Z,17.43
2018-12-02T00:35:16.954Z,16.87
2018-12-02T00:37:45.718Z,17.70
2018-12-02T00:40:13.235Z,15.80
2018-12-02T00:42:40.839Z,16.60
2018-12-02T00:45:11.595Z,16.00
2018-12-02T00:47:38.685Z,16.53
2018-12-02T00:50:06.814Z,16.53
2018-12-02T00:52:33.954Z,15.80
2018-12-02T00:55:01.067Z,16.10
2018-12-02T00:57:28.205Z,17.10
2018-12-02T00:59:55.533Z,17.00
2018-12-02T01:02:22.650Z,16.80
2018-12-02T01:04:49.756Z,15.87
2018-12-02T01:07:17.253Z,16.70
2018-12-02T01:09:44.324Z,15.30
2018-12-02T01:12:11.378Z,16.67
2018-12-02T01:14:38.422Z,17.83
2018-12-02T01:17:05.521Z,16.10
2018-12-02T01:19:32.623Z,15.27
2018-12-02T01:21:59.939Z,14.67
2018-12-02T01:24:27.013Z,16.73
2018-12-02T01:26:54.083Z,14.87
2018-12-02T01:29:21.423Z,17.00
2018-12-02T01:31:48.521Z,15.13
2018-12-02T01:34:15.595Z,15.87
2018-12-02T01:36:42.975Z,15.20
2018-12-02T01:39:10.053Z,15.87
2018-12-02T01:41:37.106Z,15.50
2018-12-02T01:44:04.181Z,15.90
2018-12-02T01:46:31.230Z,14.83
2018-12-02T01:48:58.291Z,14.67
2018-12-02T01:51:25.684Z,14.77
2018-12-02T01:53:52.777Z,15.50
2018-12-02T01:56:19.927Z,15.30
2018-12-02T01:58:47.332Z,16.00
2018-12-02T02:01:14.466Z,13.67
2018-12-02T02:03:41.534Z,15.27
2018-12-02T02:06:08.883Z,15.57
2018-12-02T02:08:35.920Z,14.87
2018-12-02T02:11:03.014Z,14.40
2018-12-02T02:13:30.099Z,15.03
2018-12-02T02:15:57.178Z,15.17
2018-12-02T02:18:24.247Z,16.00
2018-12-02T02:20:51.568Z,14.87
2018-12-02T02:23:18.614Z,14.73
2018-12-02T02:25:45.696Z,14.33
2018-12-02T02:28:13.110Z,14.43
2018-12-02T02:30:40.147Z,15.30
2018-12-02T02:33:07.199Z,15.63
2018-12-02T02:35:34.350Z,15.00
2018-12-02T02:38:01.398Z,14.40
2018-12-02T02:40:28.919Z,14.67
2018-12-02T02:42:55.990Z,14.10
2018-12-02T02:45:29.899Z,16.30
2018-12-02T02:47:57.209Z,13.80
2018-12-02T02:50:24.588Z,14.10
2018-12-02T02:52:52.220Z,12.53
2018-12-02T02:55:19.545Z,13.13
2018-12-02T02:57:46.630Z,13.97
2018-12-02T03:00:15.190Z,15.20
2018-12-02T03:02:42.566Z,13.77
2018-12-02T03:05:10.110Z,13.90
2018-12-02T03:07:37.199Z,15.33
2018-12-02T03:10:05.684Z,14.47
2018-12-02T03:12:32.766Z,14.07
2018-12-02T03:14:59.851Z,14.03
2018-12-02T03:17:26.939Z,12.93
2018-12-02T03:19:54.008Z,13.70
2018-12-02T03:22:21.078Z,13.57
2018-12-02T03:24:48.240Z,13.67
2018-12-02T03:27:15.328Z,14.70
2018-12-02T03:29:42.537Z,11.67
2018-12-02T03:32:09.932Z,13.67
2018-12-02T03:34:37.018Z,14.00
2018-12-02T03:37:04.426Z,14.50
2018-12-02T03:39:31.527Z,13.20
2018-12-02T03:41:58.582Z,15.10
2018-12-02T03:44:25.656Z,14.60
2018-12-02T03:46:52.797Z,14.80
2018-12-02T03:49:19.862Z,13.47
2018-12-02T03:51:46.963Z,14.10
2018-12-02T03:54:14.351Z,14.77
2018-12-02T03:56:46.068Z,14.40
2018-12-02T03:59:13.110Z,14.57
2018-12-02T04:01:40.182Z,14.00
2018-12-02T04:04:07.228Z,14.03
2018-12-02T04:06:34.362Z,14.37
2018-12-02T04:09:01.731Z,13.50
2018-12-02T04:11:28.786Z,14.60
2018-12-02T04:13:55.856Z,15.50
2018-12-02T04:16:23.162Z,14.07
2018-12-02T04:18:50.895Z,14.87
2018-12-02T04:21:18.111Z,14.17
2018-12-02T04:23:45.210Z,13.63
2018-12-02T04:26:12.250Z,13.97
2018-12-02T04:28:39.340Z,13.93
2018-12-02T04:31:06.439Z,13.17
2018-12-02T04:33:33.539Z,13.27
2018-12-02T04:36:00.650Z,13.40
2018-12-02T04:38:28.080Z,14.63
2018-12-02T04:40:55.177Z,11.73
2018-12-02T04:43:22.245Z,13.63
2018-12-02T04:45:49.627Z,13.07
2018-12-02T04:48:16.711Z,14.13
2018-12-02T04:50:43.803Z,14.37
2018-12-02T04:53:11.216Z,14.17
2018-12-02T04:55:38.295Z,13.97
2018-12-02T04:58:06.083Z,13.67
2018-12-02T05:00:33.239Z,12.80
2018-12-02T05:03:00.260Z,11.90
2018-12-02T05:05:27.319Z,13.90
2018-12-02T05:07:54.422Z,13.33
2018-12-02T05:10:21.528Z,13.00
2018-12-02T05:12:48.880Z,13.03
2018-12-02T05:15:16.381Z,14.90
2018-12-02T05:17:43.439Z,14.60
2018-12-02T05:20:11.862Z,12.70
2018-12-02T05:22:39.348Z,15.40
2018-12-02T05:25:07.309Z,15.43
2018-12-02T05:27:34.393Z,13.60
2018-12-02T05:30:02.023Z,13.07
2018-12-02T05:32:29.125Z,13.80
2018-12-02T05:34:56.174Z,13.33
2018-12-02T05:37:23.244Z,12.37
2018-12-02T05:39:50.334Z,12.87
2018-12-02T05:42:23.535Z,12.97
2018-12-02T05:44:50.725Z,12.20
2018-12-02T05:47:17.862Z,11.80
2018-12-02T05:49:46.202Z,12.20
2018-12-02T05:52:13.335Z,12.60
2018-12-02T05:54:40.417Z,11.63
2018-12-02T05:57:07.713Z,12.77
2018-12-02T05:59:34.758Z,10.87
2018-12-02T06:02:01.831Z,11.10
2018-12-02T06:04:28.975Z,11.10
2018-12-02T06:06:56.063Z,12.23
2018-12-02T06:09:23.155Z,11.00
2018-12-02T06:11:50.283Z,12.63
2018-12-02T06:14:17.358Z,11.40
2018-12-02T06:16:44.398Z,10.13
2018-12-02T06:19:11.755Z,11.60
2018-12-02T06:21:38.872Z,11.17
2018-12-02T06:24:05.925Z,11.13
2018-12-02T06:26:33.019Z,10.67
2018-12-02T06:29:00.095Z,11.63
2018-12-02T06:31:27.149Z,12.40
2018-12-02T06:33:54.229Z,10.20
2018-12-02T06:36:21.266Z,12.57
2018-12-02T06:38:48.335Z,11.70
2018-12-02T06:41:15.456Z,11.10
2018-12-02T06:43:42.502Z,11.93
2018-12-02T06:46:09.568Z,11.30
2018-12-02T06:48:36.640Z,11.93
2018-12-02T06:51:03.707Z,9.97
2018-12-02T06:53:30.750Z,11.90
2018-12-02T06:56:05.400Z,11.33
2018-12-02T06:58:37.208Z,11.90
2018-12-02T07:01:38.466Z,11.90
2018-12-02T07:04:08.204Z,11.90
2018-12-02T07:06:35.306Z,11.37
2018-12-02T07:09:02.848Z,12.07
2018-12-02T07:11:29.897Z,12.40
2018-12-02T07:13:56.976Z,10.93
2018-12-02T07:16:24.371Z,10.37
2018-12-02T07:18:53.702Z,10.77
2018-12-02T07:21:22.145Z,12.10
2018-12-02T07:23:49.269Z,11.40
2018-12-02T07:26:17.638Z,11.50
2018-12-02T07:28:44.805Z,11.37
2018-12-02T07:31:11.898Z,12.33
2018-12-02T07:33:38.954Z,11.60
2018-12-02T07:36:06.625Z,11.97
2018-12-02T07:39:07.986Z,10.43
2018-12-02T07:41:35.033Z,11.80
2018-12-02T07:44:02.073Z,11.40
2018-12-02T07:46:29.499Z,12.27
2018-12-02T07:48:56.584Z,11.90
2018-12-02T07:51:23.622Z,12.00
2018-12-02T07:53:50.727Z,11.87
2018-12-02T07:56:17.835Z,11.20
2018-12-02T07:58:44.879Z,9.60
2018-12-02T08:01:12.307Z,11.20
2018-12-02T08:03:39.358Z,11.00
2018-12-02T08:06:06.474Z,11.40
2018-12-02T08:08:33.596Z,11.57
2018-12-02T08:11:00.717Z,11.70
2018-12-02T08:13:27.928Z,10.60
2018-12-02T08:15:55.398Z,10.30
2018-12-02T08:18:22.440Z,9.93
2018-12-02T08:20:49.474Z,9.47
2018-12-02T08:23:16.865Z,11.70
2018-12-02T08:25:44.012Z,10.73
2018-12-02T08:28:11.066Z,10.43
2018-12-02T08:30:38.128Z,9.80
2018-12-02T08:33:05.287Z,10.80
2018-12-02T08:35:32.334Z,10.40
2018-12-02T08:38:00.684Z,10.37
2018-12-02T08:40:27.750Z,11.33
2018-12-02T08:42:54.805Z,10.30
2018-12-02T08:45:22.405Z,11.00
2018-12-02T08:47:49.515Z,11.50
2018-12-02T08:50:17.065Z,10.00
2018-12-02T08:52:44.530Z,10.60
2018-12-02T08:55:12.208Z,10.97
2018-12-02T08:57:40.186Z,10.40
2018-12-02T09:00:12.514Z,10.60
2018-12-02T09:02:40.296Z,11.03
2018-12-02T09:05:08.490Z,11.43
2018-12-02T09:07:36.316Z,11.50
2018-12-02T09:10:06.136Z,10.47
2018-12-02T09:12:35.390Z,10.40
2018-12-02T09:15:02.688Z,10.53
2018-12-02T09:17:31.089Z,11.97
2018-12-02T09:19:59.132Z,10.53
2018-12-02T09:22:26.700Z,10.87
2018-12-02T09:24:53.751Z,10.80
2018-12-02T09:27:20.978Z,10.80
2018-12-02T09:29:48.521Z,10.77
2018-12-02T09:32:18.148Z,10.70
2018-12-02T09:34:45.415Z,11.10
2018-12-02T09:37:12.516Z,10.37
2018-12-02T09:39:39.714Z,11.30
2018-12-02T09:42:08.720Z,11.10
2018-12-02T09:44:37.288Z,10.20
2018-12-02T09:47:04.347Z,10.80
2018-12-02T09:49:33.687Z,11.00
2018-12-02T09:52:03.039Z,9.63
2018-12-02T09:54:31.340Z,10.00
2018-12-02T09:56:58.475Z,11.60
2018-12-02T09:59:25.802Z,10.00
2018-12-02T10:01:52.855Z,8.60
2018-12-02T10:04:19.923Z,9.20
2018-12-02T10:06:47.081Z,9.97
2018-12-02T10:09:14.170Z,9.60
2018-12-02T10:11:43.258Z,10.30
2018-12-02T10:14:10.751Z,9.70
2018-12-02T10:16:40.155Z,8.80
2018-12-02T10:19:07.633Z,9.60
2018-12-02T10:21:34.999Z,7.70
2018-12-02T10:24:02.138Z,8.80
2018-12-02T10:26:29.182Z,10.17
2018-12-02T10:28:56.615Z,8.53
2018-12-02T10:31:23.663Z,8.20
2018-12-02T10:33:50.835Z,8.27
2018-12-02T10:36:18.193Z,9.30
2018-12-02T10:38:45.254Z,9.37
2018-12-02T10:41:12.339Z,9.60
2018-12-02T10:43:39.538Z,8.30
2018-12-02T10:46:06.606Z,9.10
2018-12-02T10:48:33.790Z,8.10
2018-12-02T10:51:01.178Z,8.10
2018-12-02T10:53:28.285Z,8.03
2018-12-02T10:55:55.949Z,7.53
2018-12-02T10:58:24.613Z,8.30
2018-12-02T11:00:58.065Z,8.57
2018-12-02T11:03:25.398Z,7.50
2018-12-02T11:05:52.536Z,8.20
2018-12-02T11:08:19.752Z,6.90
2018-12-02T11:10:47.243Z,7.70
2018-12-02T11:13:14.290Z,7.57
2018-12-02T11:15:41.326Z,7.23
2018-12-02T11:18:09.485Z,7.90
2018-12-02T11:20:36.572Z,7.50
2018-12-02T11:23:04.088Z,6.77
2018-12-02T11:25:31.189Z,7.33
2018-12-02T11:27:58.247Z,7.60
2018-12-02T11:30:25.338Z,7.60
2018-12-02T11:32:53.450Z,8.30
2018-12-02T11:35:20.531Z,8.00
2018-12-02T11:37:47.589Z,7.20
2018-12-02T11:40:15.219Z,7.77
2018-12-02T11:42:42.393Z,7.77
2018-12-02T11:45:10.695Z,7.53
2018-12-02T11:47:38.543Z,8.00
2018-12-02T11:50:07.795Z,7.60
2018-12-02T11:52:34.963Z,7.30
2018-12-02T11:55:02.366Z,7.57
2018-12-02T11:57:29.423Z,7.37
2018-12-02T11:59:56.495Z,7.87
2018-12-02T12:02:23.927Z,7.30
2018-12-02T12:04:51.002Z,6.63
2018-12-02T12:07:18.078Z,7.03
2018-12-02T12:09:45.235Z,7.20
2018-12-02T12:12:12.321Z,6.80
2018-12-02T12:14:39.832Z,6.07
2018-12-02T12:17:07.032Z,6.57
2018-12-02T12:19:34.130Z,6.67
2018-12-02T12:22:01.212Z,7.67
2018-12-02T12:24:28.340Z,7.27
2018-12-02T12:26:56.242Z,7.10
2018-12-02T12:29:23.817Z,7.90
2018-12-02T12:31:50.926Z,7.33
2018-12-02T12:34:18.327Z,8.27
2018-12-02T12:36:45.773Z,8.07
2018-12-02T12:39:13.111Z,7.37
2018-12-02T12:41:40.183Z,7.27
2018-12-02T12:44:08.322Z,8.17
2018-12-02T12:46:35.443Z,9.67
2018-12-02T12:49:02.636Z,7.50
2018-12-02T12:51:29.697Z,8.70
2018-12-02T12:53:56.790Z,8.57
2018-12-02T12:56:23.932Z,8.83
2018-12-02T12:58:51.023Z,8.10
2018-12-02T13:01:18.211Z,9.57
2018-12-02T13:03:45.290Z,9.60
2018-12-02T13:06:12.350Z,9.00
2018-12-02T13:08:39.880Z,8.97
2018-12-02T13:11:07.007Z,8.57
2018-12-02T13:13:34.154Z,9.50
2018-12-02T13:16:02.322Z,9.60
2018-12-02T13:18:29.503Z,8.27
2018-12-02T13:20:56.604Z,9.90
2018-12-02T13:23:23.772Z,9.80
2018-12-02T13:25:51.032Z,9.30
2018-12-02T13:28:18.126Z,8.80
2018-12-02T13:30:45.359Z,8.90
2018-12-02T13:33:12.625Z,9.50
2018-12-02T13:35:40.027Z,9.37
2018-12-02T13:38:07.163Z,8.77
2018-12-02T13:40:34.535Z,9.20
2018-12-02T13:43:04.135Z,8.87
2018-12-02T13:45:31.311Z,8.43
2018-12-02T13:47:58.434Z,7.90
2018-12-02T13:50:25.583Z,8.70
2018-12-02T13:52:53.259Z,10.17
2018-12-02T13:55:24.798Z,11.07
2018-12-02T13:57:51.922Z,10.57
2018-12-02T14:00:19.810Z,12.20
2018-12-02T14:02:47.477Z,11.00
2018-12-02T14:05:14.581Z,10.10
2018-12-02T14:07:41.649Z,8.60
2018-12-02T14:10:09.279Z,8.40
2018-12-02T14:12:36.404Z,7.93
2018-12-02T14:15:14.275Z,9.13
2018-12-02T14:17:42.190Z,9.20
2018-12-02T14:20:09.286Z,9.27
2018-12-02T14:22:36.394Z,9.20
2018-12-02T14:25:03.754Z,9.90
2018-12-02T14:27:30.802Z,11.80
2018-12-02T14:29:58.249Z,13.03
2018-12-02T14:32:25.477Z,10.80
2018-12-02T14:34:52.591Z,11.20
2018-12-02T14:37:19.798Z,10.73
2018-12-02T14:39:46.891Z,10.50
2018-12-02T14:42:13.979Z,11.70
2018-12-02T14:44:41.101Z,11.37
2018-12-02T14:47:08.272Z,10.30
2018-12-02T14:49:35.385Z,11.10
2018-12-02T14:52:02.579Z,11.10
2018-12-02T14:54:29.659Z,11.33
2018-12-02T14:56:56.710Z,10.90
2018-12-02T14:59:24.121Z,11.23
2018-12-02T15:01:52.590Z,13.17
2018-12-02T15:04:19.695Z,13.47
2018-12-02T15:06:47.134Z,11.73
2018-12-02T15:09:14.267Z,12.17
2018-12-02T15:11:41.566Z,14.00
2018-12-02T15:14:09.543Z,13.47
2018-12-02T15:16:36.638Z,13.53
2018-12-02T15:19:04.129Z,14.10
2018-12-02T15:21:31.668Z,14.50
2018-12-02T15:23:58.794Z,14.83
2018-12-02T15:26:25.899Z,17.00
2018-12-02T15:28:53.616Z,14.10
2018-12-02T15:31:20.768Z,16.80
2018-12-02T15:33:47.816Z,15.40
2018-12-02T15:36:14.963Z,15.40
2018-12-02T15:38:42.102Z,15.60
2018-12-02T15:41:09.237Z,17.30
2018-12-02T15:43:36.370Z,15.60
2018-12-02T15:46:03.754Z,15.03
2018-12-02T15:48:31.282Z,15.30
2018-12-02T15:50:58.735Z,15.70
2018-12-02T15:53:25.882Z,17.93
2018-12-02T15:55:53.058Z,15.33
2018-12-02T15:58:20.733Z,15.93
2018-12-02T16:00:47.907Z,14.97
2018-12-02T16:03:15.086Z,15.03
2018-12-02T16:05:42.481Z,16.97
2018-12-02T16:08:09.636Z,17.57
2018-12-02T16:10:36.845Z,16.33
2018-12-02T16:13:05.454Z,16.73
2018-12-02T16:15:33.182Z,17.03
2018-12-02T16:18:00.341Z,16.50
2018-12-02T16:20:31.674Z,19.53
2018-12-02T16:22:58.824Z,17.03
2018-12-02T16:25:25.902Z,18.20
2018-12-02T16:27:53.014Z,16.63
2018-12-02T16:30:20.160Z,19.27
2018-12-02T16:32:49.014Z,16.70
2018-12-02T16:35:16.532Z,18.10
2018-12-02T16:37:44.089Z,20.23
2018-12-02T16:40:12.042Z,20.40
2018-12-02T16:42:39.388Z,17.80
2018-12-02T16:45:07.488Z,25.43
2018-12-02T16:47:36.550Z,18.17
2018-12-02T16:50:06.769Z,17.10
2018-12-02T16:52:33.822Z,19.00
2018-12-02T16:55:01.051Z,20.20
2018-12-02T16:57:28.221Z,21.60
2018-12-02T16:59:55.362Z,18.63
2018-12-02T17:02:22.513Z,18.37
2018-12-02T17:04:49.610Z,21.70
2018-12-02T17:07:16.864Z,19.27
2018-12-02T17:09:44.169Z,20.20
2018-12-02T17:12:11.254Z,20.47
2018-12-02T17:14:38.815Z,20.20
2018-12-02T17:17:05.475Z,21.50
2018-12-02T17:19:32.605Z,19.33
2018-12-02T17:21:59.690Z,18.70
2018-12-02T17:24:26.815Z,20.50
2018-12-02T17:26:53.899Z,20.90
2018-12-02T17:29:20.990Z,20.20
2018-12-02T17:31:50.064Z,21.13
2018-12-02T17:34:17.280Z,19.90
2018-12-02T17:36:44.723Z,20.57
2018-12-02T17:39:12.726Z,20.23
2018-12-02T17:41:40.388Z,25.77
2018-12-02T17:44:07.474Z,23.37
2018-12-02T17:46:34.518Z,20.90
2018-12-02T17:49:01.644Z,20.20
2018-12-02T17:51:34.901Z,27.57
2018-12-02T17:54:02.008Z,20.97
2018-12-02T17:56:29.362Z,24.40
2018-12-02T17:58:56.618Z,24.90
2018-12-02T18:01:24.003Z,23.43
2018-12-02T18:03:51.280Z,20.37
2018-12-02T18:06:18.773Z,23.10
2018-12-02T18:08:46.408Z,20.30
2018-12-02T18:11:13.621Z,20.73
2018-12-02T18:13:41.122Z,19.70
2018-12-02T18:16:08.528Z,21.03
2018-12-02T18:18:35.703Z,20.80
2018-12-02T18:21:02.952Z,19.67
2018-12-02T18:23:30.262Z,20.80
2018-12-02T18:25:57.435Z,19.93
2018-12-02T18:28:24.794Z,21.60
2018-12-02T18:30:52.420Z,20.33
2018-12-02T18:33:19.647Z,19.40
2018-12-02T18:35:48.651Z,19.43
2018-12-02T18:38:19.015Z,19.33
2018-12-02T18:40:47.357Z,19.33
2018-12-02T18:43:14.599Z,19.00
2018-12-02T18:45:42.014Z,18.17
2018-12-02T18:48:09.451Z,21.40
2018-12-02T18:50:37.027Z,18.60
2018-12-02T18:53:04.931Z,19.00
2018-12-02T18:55:32.066Z,17.90
2018-12-02T18:57:59.550Z,18.80
2018-12-02T19:00:32.872Z,20.90
2018-12-02T19:03:00.251Z,23.43
2018-12-02T19:05:27.714Z,22.80
2018-12-02T19:07:54.936Z,15.97
2018-12-02T19:10:23.815Z,17.37
2018-12-02T19:12:51.505Z,16.27
2018-12-02T19:15:18.974Z,16.90
2018-12-02T19:17:46.459Z,14.87
2018-12-02T19:20:14.455Z,18.40
2018-12-02T19:22:41.705Z,14.90
2018-12-02T19:25:10.761Z,16.43
2018-12-02T19:27:38.094Z,16.60
2018-12-02T19:30:07.080Z,13.60
2018-12-02T19:32:35.243Z,15.60
2018-12-02T19:35:02.515Z,14.63
2018-12-02T19:37:30.185Z,14.77
2018-12-02T19:39:57.503Z,18.03
2018-12-02T19:42:24.712Z,15.80
2018-12-02T19:44:52.255Z,16.50
2018-12-02T19:47:19.651Z,14.50
2018-12-02T19:49:46.923Z,15.43
2018-12-02T19:52:14.423Z,15.10
2018-12-02T19:54:41.722Z,14.53
2018-12-02T19:57:08.798Z,13.97
2018-12-02T19:59:36.105Z,13.53
2018-12-02T20:02:03.188Z,15.00
2018-12-02T20:04:31.244Z,13.80
2018-12-02T20:06:58.378Z,14.27
2018-12-02T20:09:25.462Z,24.60
2018-12-02T20:11:52.560Z,19.90
2018-12-02T20:14:20.074Z,15.43
2018-12-02T20:16:47.294Z,14.10
2018-12-02T20:19:20.635Z,14.20
2018-12-02T20:21:47.788Z,17.43
2018-12-02T20:24:21.104Z,13.27
2018-12-02T20:26:48.254Z,13.33
2018-12-02T20:29:15.383Z,12.90
2018-12-02T20:31:42.859Z,13.10
2018-12-02T20:34:10.119Z,13.33
2018-12-02T20:36:37.491Z,12.90
2018-12-02T20:39:06.657Z,12.63
2018-12-02T20:41:33.794Z,12.70
2018-12-02T20:44:00.987Z,14.00
2018-12-02T20:46:28.062Z,12.67
2018-12-02T20:48:55.209Z,12.80
2018-12-02T20:51:22.372Z,12.03
2018-12-02T20:53:50.655Z,13.47
2018-12-02T20:56:16.911Z,12.53
2018-12-02T20:58:44.003Z,12.90
2018-12-02T21:01:13.324Z,12.77
2018-12-02T21:03:42.570Z,12.87
2018-12-02T21:06:10.725Z,12.27
2018-12-02T21:08:37.848Z,11.37
2018-12-02T21:11:04.998Z,12.37
2018-12-02T21:13:32.072Z,11.77
2018-12-02T21:15:59.850Z,14.60
2018-12-02T21:18:26.925Z,11.73
2018-12-02T21:20:53.986Z,12.47
2018-12-02T21:23:21.084Z,12.13
2018-12-02T21:25:48.423Z,11.80
2018-12-02T21:28:15.828Z,11.93
2018-12-02T21:30:43.243Z,13.10
2018-12-02T21:33:10.362Z,11.97
2018-12-02T21:35:37.633Z,12.93
2018-12-02T21:38:05.319Z,12.20
2018-12-02T21:40:32.453Z,10.87
2018-12-02T21:42:59.506Z,11.50
2018-12-02T21:45:26.612Z,11.87
2018-12-02T21:47:54.252Z,11.90
2018-12-02T21:50:23.114Z,13.10
2018-12-02T21:52:51.124Z,12.40
2018-12-02T21:55:18.166Z,10.80
2018-12-02T21:57:45.253Z,11.70
2018-12-02T22:00:18.876Z,11.00
2018-12-02T22:02:46.094Z,11.23
2018-12-02T22:05:13.270Z,10.63
2018-12-02T22:07:40.763Z,14.40
2018-12-02T22:10:08.727Z,12.03
2018-12-02T22:12:35.763Z,11.97
2018-12-02T22:15:03.106Z,11.63
2018-12-02T22:17:30.580Z,11.23
2018-12-02T22:19:57.657Z,11.10
2018-12-02T22:22:24.781Z,10.70
2018-12-02T22:24:52.094Z,10.07
2018-12-02T22:27:19.241Z,10.30
2018-12-02T22:29:46.868Z,9.13
2018-12-02T22:32:14.012Z,9.67
2018-12-02T22:34:41.133Z,10.17
2018-12-02T22:37:08.314Z,10.30
2018-12-02T22:39:35.411Z,10.17
2018-12-02T22:42:02.539Z,11.17
2018-12-02T22:44:31.569Z,12.80
2018-12-02T22:46:56.749Z,9.50
2018-12-02T22:49:23.830Z,10.60
2018-12-02T22:51:50.964Z,10.43
2018-12-02T22:54:18.116Z,10.63
2018-12-02T22:56:45.162Z,9.47
2018-12-02T22:59:12.526Z,10.53
2018-12-02T23:01:45.426Z,10.03
2018-12-02T23:04:12.773Z,10.60
2018-12-02T23:06:39.870Z,12.50
2018-12-02T23:09:07.074Z,11.23
2018-12-02T23:11:34.387Z,13.13
2018-12-02T23:14:01.439Z,11.10
2018-12-02T23:16:28.589Z,11.23
2018-12-02T23:18:55.669Z,11.57
2018-12-02T23:21:22.911Z,10.80
2018-12-02T23:23:49.962Z,11.63
2018-12-02T23:26:17.326Z,10.67
2018-12-02T23:28:44.399Z,12.23
2018-12-02T23:31:11.512Z,11.23
2018-12-02T23:33:38.695Z,11.30
2018-12-02T23:36:05.746Z,10.77
2018-12-02T23:38:32.833Z,11.47
2018-12-02T23:43:34.136Z,11.10
2018-12-02T23:46:01.240Z,11.43
2018-12-02T23:48:28.397Z,10.90
2018-12-02T23:50:55.599Z,9.77
2018-12-02T23:53:22.942Z,9.70
2018-12-02T23:55:50.002Z,9.67
2018-12-02T23:58:17.139Z,8.73
